sensor_id;sensor_type;location;lat;lon;timestamp;P1;durP1;ratioP1;P2;durP2;ratioP2
24677;SDS011;12800;53.094;8.778;2023-12-22T00:02:16;14.63;;;1.60;;
24677;SDS011;12800;53.094;8.778;2023-12-22T00:04:42;7.57;;;1.73;;
24677;SDS011;12800;53.094;8.778;2023-12-22T00:07:08;11.47;;;2.27;;
24677;SDS011;12800;53.094;8.778;2023-12-22T00:09:33;7.00;;;1.50;;
24677;SDS011;12800;53.094;8.778;2023-12-22T00:11:59;6.07;;;2.20;;
24677;SDS011;12800;53.094;8.778;2023-12-22T00:14:24;8.57;;;2.83;;
24677;SDS011;12800;53.094;8.778;2023-12-22T00:16:50;7.57;;;1.77;;
24677;SDS011;12800;53.094;8.778;2023-12-22T00:19:16;9.03;;;1.57;;
24677;SDS011;12800;53.094;8.778;2023-12-22T00:21:41;11.03;;;1.70;;
24677;SDS011;12800;53.094;8.778;2023-12-22T00:24:07;4.37;;;1.50;;
24677;SDS011;12800;53.094;8.778;2023-12-22T00:26:32;7.00;;;1.30;;
24677;SDS011;12800;53.094;8.778;2023-12-22T00:28:58;8.90;;;1.47;;
24677;SDS011;12800;53.094;8.778;2023-12-22T00:31:24;7.00;;;1.60;;
24677;SDS011;12800;53.094;8.778;2023-12-22T00:33:49;6.57;;;1.20;;
24677;SDS011;12800;53.094;8.778;2023-12-22T00:36:15;6.27;;;1.07;;
24677;SDS011;12800;53.094;8.778;2023-12-22T00:38:42;5.57;;;1.40;;
24677;SDS011;12800;53.094;8.778;2023-12-22T00:41:09;4.93;;;1.17;;
24677;SDS011;12800;53.094;8.778;2023-12-22T00:43:35;8.77;;;1.33;;
24677;SDS011;12800;53.094;8.778;2023-12-22T00:46:00;5.60;;;1.00;;
24677;SDS011;12800;53.094;8.778;2023-12-22T00:48:27;7.27;;;1.27;;
24677;SDS011;12800;53.094;8.778;2023-12-22T00:50:53;4.07;;;1.03;;
24677;SDS011;12800;53.094;8.778;2023-12-22T00:53:18;9.10;;;1.50;;
24677;SDS011;12800;53.094;8.778;2023-12-22T00:55:44;5.27;;;1.10;;
24677;SDS011;12800;53.094;8.778;2023-12-22T00:58:10;7.20;;;1.57;;
24677;SDS011;12800;53.094;8.778;2023-12-22T01:00:36;9.53;;;1.50;;
24677;SDS011;12800;53.094;8.778;2023-12-22T01:03:02;6.07;;;1.50;;
24677;SDS011;12800;53.094;8.778;2023-12-22T01:05:28;11.33;;;2.23;;
24677;SDS011;12800;53.094;8.778;2023-12-22T01:07:53;5.43;;;1.80;;
24677;SDS011;12800;53.094;8.778;2023-12-22T01:10:19;10.57;;;1.60;;
24677;SDS011;12800;53.094;8.778;2023-12-22T01:12:44;6.07;;;2.03;;
24677;SDS011;12800;53.094;8.778;2023-12-22T01:15:10;6.47;;;1.40;;
24677;SDS011;12800;53.094;8.778;2023-12-22T01:17:35;8.87;;;2.00;;
24677;SDS011;12800;53.094;8.778;2023-12-22T01:20:01;7.70;;;1.87;;
24677;SDS011;12800;53.094;8.778;2023-12-22T01:22:27;11.10;;;2.10;;
24677;SDS011;12800;53.094;8.778;2023-12-22T01:24:53;10.03;;;1.83;;
24677;SDS011;12800;53.094;8.778;2023-12-22T01:27:18;9.47;;;1.80;;
24677;SDS011;12800;53.094;8.778;2023-12-22T01:29:44;9.70;;;1.83;;
24677;SDS011;12800;53.094;8.778;2023-12-22T01:32:10;8.30;;;1.50;;
24677;SDS011;12800;53.094;8.778;2023-12-22T01:34:36;5.17;;;1.80;;
24677;SDS011;12800;53.094;8.778;2023-12-22T01:37:01;12.00;;;1.83;;
24677;SDS011;12800;53.094;8.778;2023-12-22T01:39:27;7.63;;;1.47;;
24677;SDS011;12800;53.094;8.778;2023-12-22T01:41:53;5.93;;;1.33;;
24677;SDS011;12800;53.094;8.778;2023-12-22T01:44:18;6.80;;;1.10;;
24677;SDS011;12800;53.094;8.778;2023-12-22T01:46:44;8.63;;;1.53;;
24677;SDS011;12800;53.094;8.778;2023-12-22T01:49:10;11.27;;;1.63;;
24677;SDS011;12800;53.094;8.778;2023-12-22T01:51:37;9.67;;;1.40;;
24677;SDS011;12800;53.094;8.778;2023-12-22T01:54:07;8.70;;;1.60;;
24677;SDS011;12800;53.094;8.778;2023-12-22T01:56:33;3.60;;;1.00;;
24677;SDS011;12800;53.094;8.778;2023-12-22T01:59:00;9.00;;;1.70;;
24677;SDS011;12800;53.094;8.778;2023-12-22T02:01:29;5.13;;;1.37;;
24677;SDS011;12800;53.094;8.778;2023-12-22T02:03:56;6.40;;;2.13;;
24677;SDS011;12800;53.094;8.778;2023-12-22T02:06:23;7.27;;;1.20;;
24677;SDS011;12800;53.094;8.778;2023-12-22T02:08:49;6.43;;;0.87;;
24677;SDS011;12800;53.094;8.778;2023-12-22T02:11:15;4.03;;;0.90;;
24677;SDS011;12800;53.094;8.778;2023-12-22T02:13:42;2.90;;;0.77;;
24677;SDS011;12800;53.094;8.778;2023-12-22T02:18:57;3.27;;;0.60;;
24677;SDS011;12800;53.094;8.778;2023-12-22T02:21:26;3.03;;;0.40;;
24677;SDS011;12800;53.094;8.778;2023-12-22T02:23:52;2.53;;;0.60;;
24677;SDS011;12800;53.094;8.778;2023-12-22T02:26:34;6.30;;;1.20;;
24677;SDS011;12800;53.094;8.778;2023-12-22T02:29:06;6.87;;;1.10;;
24677;SDS011;12800;53.094;8.778;2023-12-22T02:31:37;8.40;;;1.30;;
24677;SDS011;12800;53.094;8.778;2023-12-22T02:34:11;3.47;;;1.03;;
24677;SDS011;12800;53.094;8.778;2023-12-22T02:36:39;3.27;;;1.13;;
24677;SDS011;12800;53.094;8.778;2023-12-22T02:39:06;2.83;;;0.70;;
24677;SDS011;12800;53.094;8.778;2023-12-22T02:41:34;3.30;;;0.80;;
24677;SDS011;12800;53.094;8.778;2023-12-22T02:44:00;6.00;;;1.47;;
24677;SDS011;12800;53.094;8.778;2023-12-22T02:46:27;7.13;;;1.30;;
24677;SDS011;12800;53.094;8.778;2023-12-22T02:48:53;8.67;;;1.80;;
24677;SDS011;12800;53.094;8.778;2023-12-22T02:51:18;7.53;;;1.03;;
24677;SDS011;12800;53.094;8.778;2023-12-22T02:53:44;9.13;;;1.57;;
24677;SDS011;12800;53.094;8.778;2023-12-22T02:56:09;8.03;;;1.30;;
24677;SDS011;12800;53.094;8.778;2023-12-22T02:58:35;7.23;;;1.20;;
24677;SDS011;12800;53.094;8.778;2023-12-22T03:01:01;10.10;;;1.40;;
24677;SDS011;12800;53.094;8.778;2023-12-22T03:03:26;6.97;;;1.50;;
24677;SDS011;12800;53.094;8.778;2023-12-22T03:05:52;4.77;;;1.07;;
24677;SDS011;12800;53.094;8.778;2023-12-22T03:08:18;6.60;;;1.80;;
24677;SDS011;12800;53.094;8.778;2023-12-22T03:10:43;8.03;;;1.33;;
24677;SDS011;12800;53.094;8.778;2023-12-22T03:13:09;11.30;;;2.10;;
24677;SDS011;12800;53.094;8.778;2023-12-22T03:15:34;11.10;;;1.50;;
24677;SDS011;12800;53.094;8.778;2023-12-22T03:18:00;7.90;;;2.10;;
24677;SDS011;12800;53.094;8.778;2023-12-22T03:20:25;11.23;;;1.57;;
24677;SDS011;12800;53.094;8.778;2023-12-22T03:22:51;13.27;;;2.17;;
24677;SDS011;12800;53.094;8.778;2023-12-22T03:25:17;8.23;;;1.67;;
24677;SDS011;12800;53.094;8.778;2023-12-22T03:27:42;12.60;;;1.93;;
24677;SDS011;12800;53.094;8.778;2023-12-22T03:30:08;11.97;;;2.20;;
24677;SDS011;12800;53.094;8.778;2023-12-22T03:32:34;7.93;;;1.47;;
24677;SDS011;12800;53.094;8.778;2023-12-22T03:34:59;13.03;;;2.07;;
24677;SDS011;12800;53.094;8.778;2023-12-22T03:37:25;11.20;;;1.50;;
24677;SDS011;12800;53.094;8.778;2023-12-22T03:39:51;11.17;;;2.60;;
24677;SDS011;12800;53.094;8.778;2023-12-22T03:42:16;5.47;;;1.73;;
24677;SDS011;12800;53.094;8.778;2023-12-22T03:44:42;8.53;;;1.83;;
24677;SDS011;12800;53.094;8.778;2023-12-22T03:47:07;8.70;;;1.37;;
24677;SDS011;12800;53.094;8.778;2023-12-22T03:49:33;9.23;;;1.50;;
24677;SDS011;12800;53.094;8.778;2023-12-22T03:51:59;7.40;;;1.37;;
24677;SDS011;12800;53.094;8.778;2023-12-22T03:54:24;4.60;;;1.20;;
24677;SDS011;12800;53.094;8.778;2023-12-22T03:56:50;9.00;;;1.53;;
24677;SDS011;12800;53.094;8.778;2023-12-22T03:59:15;7.37;;;1.33;;
24677;SDS011;12800;53.094;8.778;2023-12-22T04:01:43;3.23;;;1.50;;
24677;SDS011;12800;53.094;8.778;2023-12-22T04:04:09;7.17;;;1.10;;
24677;SDS011;12800;53.094;8.778;2023-12-22T04:06:38;5.10;;;1.47;;
24677;SDS011;12800;53.094;8.778;2023-12-22T04:09:05;7.00;;;1.40;;
24677;SDS011;12800;53.094;8.778;2023-12-22T04:11:30;11.33;;;1.50;;
24677;SDS011;12800;53.094;8.778;2023-12-22T04:13:56;11.33;;;2.10;;
24677;SDS011;12800;53.094;8.778;2023-12-22T04:16:22;5.43;;;1.20;;
24677;SDS011;12800;53.094;8.778;2023-12-22T04:18:47;11.67;;;2.03;;
24677;SDS011;12800;53.094;8.778;2023-12-22T04:21:13;8.43;;;1.57;;
24677;SDS011;12800;53.094;8.778;2023-12-22T04:23:38;6.33;;;1.43;;
24677;SDS011;12800;53.094;8.778;2023-12-22T04:26:04;5.03;;;1.20;;
24677;SDS011;12800;53.094;8.778;2023-12-22T04:28:29;13.83;;;2.10;;
24677;SDS011;12800;53.094;8.778;2023-12-22T04:30:55;5.93;;;1.30;;
24677;SDS011;12800;53.094;8.778;2023-12-22T04:33:21;10.83;;;1.80;;
24677;SDS011;12800;53.094;8.778;2023-12-22T04:35:46;12.77;;;1.80;;
24677;SDS011;12800;53.094;8.778;2023-12-22T04:38:12;12.77;;;2.10;;
24677;SDS011;12800;53.094;8.778;2023-12-22T04:40:37;11.73;;;1.60;;
24677;SDS011;12800;53.094;8.778;2023-12-22T04:43:03;11.47;;;2.20;;
24677;SDS011;12800;53.094;8.778;2023-12-22T04:45:29;9.47;;;2.00;;
24677;SDS011;12800;53.094;8.778;2023-12-22T04:47:54;10.27;;;2.20;;
24677;SDS011;12800;53.094;8.778;2023-12-22T04:50:20;18.07;;;2.60;;
24677;SDS011;12800;53.094;8.778;2023-12-22T04:52:45;10.37;;;2.00;;
24677;SDS011;12800;53.094;8.778;2023-12-22T04:55:11;10.67;;;1.80;;
24677;SDS011;12800;53.094;8.778;2023-12-22T04:57:37;17.03;;;2.40;;
24677;SDS011;12800;53.094;8.778;2023-12-22T05:00:02;14.90;;;2.40;;
24677;SDS011;12800;53.094;8.778;2023-12-22T05:02:28;10.53;;;2.20;;
24677;SDS011;12800;53.094;8.778;2023-12-22T05:04:54;8.60;;;2.40;;
24677;SDS011;12800;53.094;8.778;2023-12-22T05:07:19;11.13;;;2.30;;
24677;SDS011;12800;53.094;8.778;2023-12-22T05:09:45;8.07;;;2.10;;
24677;SDS011;12800;53.094;8.778;2023-12-22T05:12:11;11.80;;;2.53;;
24677;SDS011;12800;53.094;8.778;2023-12-22T05:14:36;14.50;;;2.77;;
24677;SDS011;12800;53.094;8.778;2023-12-22T05:17:02;14.07;;;2.67;;
24677;SDS011;12800;53.094;8.778;2023-12-22T05:19:28;18.67;;;3.83;;
24677;SDS011;12800;53.094;8.778;2023-12-22T05:21:53;9.60;;;2.60;;
24677;SDS011;12800;53.094;8.778;2023-12-22T05:24:21;16.00;;;1.90;;
24677;SDS011;12800;53.094;8.778;2023-12-22T05:26:47;9.57;;;1.77;;
24677;SDS011;12800;53.094;8.778;2023-12-22T05:29:12;7.83;;;2.23;;
24677;SDS011;12800;53.094;8.778;2023-12-22T05:31:38;9.27;;;1.73;;
24677;SDS011;12800;53.094;8.778;2023-12-22T05:34:04;14.70;;;2.33;;
24677;SDS011;12800;53.094;8.778;2023-12-22T05:36:31;5.00;;;1.27;;
24677;SDS011;12800;53.094;8.778;2023-12-22T05:38:56;10.20;;;2.23;;
24677;SDS011;12800;53.094;8.778;2023-12-22T05:41:22;9.23;;;1.77;;
24677;SDS011;12800;53.094;8.778;2023-12-22T05:43:47;14.07;;;1.93;;
24677;SDS011;12800;53.094;8.778;2023-12-22T05:46:13;10.40;;;1.57;;
24677;SDS011;12800;53.094;8.778;2023-12-22T05:48:38;9.67;;;1.60;;
24677;SDS011;12800;53.094;8.778;2023-12-22T05:51:04;5.90;;;1.63;;
24677;SDS011;12800;53.094;8.778;2023-12-22T05:53:32;9.47;;;1.40;;
24677;SDS011;12800;53.094;8.778;2023-12-22T05:55:58;5.47;;;1.30;;
24677;SDS011;12800;53.094;8.778;2023-12-22T05:58:24;5.37;;;1.30;;
24677;SDS011;12800;53.094;8.778;2023-12-22T06:00:50;6.90;;;2.00;;
24677;SDS011;12800;53.094;8.778;2023-12-22T06:03:15;4.00;;;1.07;;
24677;SDS011;12800;53.094;8.778;2023-12-22T06:05:41;3.27;;;0.97;;
24677;SDS011;12800;53.094;8.778;2023-12-22T06:08:06;5.63;;;1.50;;
24677;SDS011;12800;53.094;8.778;2023-12-22T06:10:32;6.30;;;1.40;;
24677;SDS011;12800;53.094;8.778;2023-12-22T06:12:57;8.73;;;1.33;;
24677;SDS011;12800;53.094;8.778;2023-12-22T06:15:23;9.60;;;2.67;;
24677;SDS011;12800;53.094;8.778;2023-12-22T06:17:49;8.23;;;1.20;;
24677;SDS011;12800;53.094;8.778;2023-12-22T06:20:15;5.47;;;1.70;;
24677;SDS011;12800;53.094;8.778;2023-12-22T06:22:40;4.93;;;1.40;;
24677;SDS011;12800;53.094;8.778;2023-12-22T06:25:06;10.07;;;1.40;;
24677;SDS011;12800;53.094;8.778;2023-12-22T06:27:33;6.50;;;1.90;;
24677;SDS011;12800;53.094;8.778;2023-12-22T06:29:59;7.30;;;2.40;;
24677;SDS011;12800;53.094;8.778;2023-12-22T06:32:24;6.63;;;2.63;;
24677;SDS011;12800;53.094;8.778;2023-12-22T06:34:50;7.77;;;3.60;;
24677;SDS011;12800;53.094;8.778;2023-12-22T06:37:15;7.87;;;2.60;;
24677;SDS011;12800;53.094;8.778;2023-12-22T06:39:41;6.77;;;1.90;;
24677;SDS011;12800;53.094;8.778;2023-12-22T06:42:07;8.97;;;2.00;;
24677;SDS011;12800;53.094;8.778;2023-12-22T06:44:36;10.80;;;2.33;;
24677;SDS011;12800;53.094;8.778;2023-12-22T06:47:02;13.93;;;1.97;;
24677;SDS011;12800;53.094;8.778;2023-12-22T06:49:28;10.63;;;2.57;;
24677;SDS011;12800;53.094;8.778;2023-12-22T06:51:53;11.63;;;2.47;;
24677;SDS011;12800;53.094;8.778;2023-12-22T06:54:19;10.80;;;2.57;;
24677;SDS011;12800;53.094;8.778;2023-12-22T06:56:44;11.47;;;3.27;;
24677;SDS011;12800;53.094;8.778;2023-12-22T06:59:10;11.73;;;2.80;;
24677;SDS011;12800;53.094;8.778;2023-12-22T07:01:37;9.77;;;3.10;;
24677;SDS011;12800;53.094;8.778;2023-12-22T07:04:02;7.37;;;1.90;;
24677;SDS011;12800;53.094;8.778;2023-12-22T07:06:30;6.17;;;1.40;;
24677;SDS011;12800;53.094;8.778;2023-12-22T07:11:41;10.83;;;2.77;;
24677;SDS011;12800;53.094;8.778;2023-12-22T07:14:07;9.80;;;2.80;;
24677;SDS011;12800;53.094;8.778;2023-12-22T07:16:34;13.47;;;3.63;;
24677;SDS011;12800;53.094;8.778;2023-12-22T07:19:00;14.50;;;4.03;;
24677;SDS011;12800;53.094;8.778;2023-12-22T07:21:26;14.87;;;3.97;;
24677;SDS011;12800;53.094;8.778;2023-12-22T07:23:51;13.30;;;4.13;;
24677;SDS011;12800;53.094;8.778;2023-12-22T07:26:17;18.20;;;3.80;;
24677;SDS011;12800;53.094;8.778;2023-12-22T07:28:42;16.17;;;2.87;;
24677;SDS011;12800;53.094;8.778;2023-12-22T07:31:08;10.50;;;2.40;;
24677;SDS011;12800;53.094;8.778;2023-12-22T07:33:34;10.30;;;2.57;;
24677;SDS011;12800;53.094;8.778;2023-12-22T07:35:59;7.47;;;2.17;;
24677;SDS011;12800;53.094;8.778;2023-12-22T07:38:25;12.53;;;2.90;;
24677;SDS011;12800;53.094;8.778;2023-12-22T07:40:51;16.17;;;2.83;;
24677;SDS011;12800;53.094;8.778;2023-12-22T07:43:16;15.33;;;3.10;;
24677;SDS011;12800;53.094;8.778;2023-12-22T07:45:42;23.13;;;3.40;;
24677;SDS011;12800;53.094;8.778;2023-12-22T07:48:08;15.93;;;2.83;;
24677;SDS011;12800;53.094;8.778;2023-12-22T07:50:33;14.73;;;2.67;;
24677;SDS011;12800;53.094;8.778;2023-12-22T07:52:59;10.83;;;2.60;;
24677;SDS011;12800;53.094;8.778;2023-12-22T07:55:25;14.63;;;2.60;;
24677;SDS011;12800;53.094;8.778;2023-12-22T07:57:50;19.53;;;3.13;;
24677;SDS011;12800;53.094;8.778;2023-12-22T08:00:17;12.80;;;3.60;;
24677;SDS011;12800;53.094;8.778;2023-12-22T08:02:43;13.20;;;2.47;;
24677;SDS011;12800;53.094;8.778;2023-12-22T08:05:09;13.87;;;3.17;;
24677;SDS011;12800;53.094;8.778;2023-12-22T08:07:35;14.90;;;3.47;;
24677;SDS011;12800;53.094;8.778;2023-12-22T08:10:01;20.10;;;2.77;;
24677;SDS011;12800;53.094;8.778;2023-12-22T08:12:27;18.60;;;2.60;;
24677;SDS011;12800;53.094;8.778;2023-12-22T08:14:53;21.43;;;3.20;;
24677;SDS011;12800;53.094;8.778;2023-12-22T08:17:19;15.87;;;2.63;;
24677;SDS011;12800;53.094;8.778;2023-12-22T08:19:45;16.13;;;2.87;;
24677;SDS011;12800;53.094;8.778;2023-12-22T08:22:10;16.63;;;3.33;;
24677;SDS011;12800;53.094;8.778;2023-12-22T08:24:38;13.47;;;2.50;;
24677;SDS011;12800;53.094;8.778;2023-12-22T08:27:04;10.43;;;2.37;;
24677;SDS011;12800;53.094;8.778;2023-12-22T08:29:31;16.40;;;2.63;;
24677;SDS011;12800;53.094;8.778;2023-12-22T08:31:57;10.93;;;2.17;;
24677;SDS011;12800;53.094;8.778;2023-12-22T08:34:23;12.33;;;3.50;;
24677;SDS011;12800;53.094;8.778;2023-12-22T08:36:49;12.40;;;2.73;;
24677;SDS011;12800;53.094;8.778;2023-12-22T08:39:15;12.27;;;2.93;;
24677;SDS011;12800;53.094;8.778;2023-12-22T08:41:40;12.60;;;3.53;;
24677;SDS011;12800;53.094;8.778;2023-12-22T08:44:06;14.67;;;3.57;;
24677;SDS011;12800;53.094;8.778;2023-12-22T08:46:33;12.90;;;3.37;;
24677;SDS011;12800;53.094;8.778;2023-12-22T08:48:59;17.47;;;3.90;;
24677;SDS011;12800;53.094;8.778;2023-12-22T08:51:28;9.97;;;2.23;;
24677;SDS011;12800;53.094;8.778;2023-12-22T08:53:54;12.03;;;2.73;;
24677;SDS011;12800;53.094;8.778;2023-12-22T08:56:23;10.13;;;2.90;;
24677;SDS011;12800;53.094;8.778;2023-12-22T08:58:50;12.77;;;3.10;;
24677;SDS011;12800;53.094;8.778;2023-12-22T09:01:17;18.73;;;3.80;;
24677;SDS011;12800;53.094;8.778;2023-12-22T09:03:43;15.13;;;3.30;;
24677;SDS011;12800;53.094;8.778;2023-12-22T09:06:18;17.37;;;3.90;;
24677;SDS011;12800;53.094;8.778;2023-12-22T09:08:46;17.10;;;3.43;;
24677;SDS011;12800;53.094;8.778;2023-12-22T09:11:13;12.70;;;2.20;;
24677;SDS011;12800;53.094;8.778;2023-12-22T09:13:41;9.27;;;1.97;;
24677;SDS011;12800;53.094;8.778;2023-12-22T09:16:07;10.73;;;1.83;;
24677;SDS011;12800;53.094;8.778;2023-12-22T09:18:34;5.10;;;1.33;;
24677;SDS011;12800;53.094;8.778;2023-12-22T09:21:00;5.30;;;2.43;;
24677;SDS011;12800;53.094;8.778;2023-12-22T09:23:26;8.40;;;2.90;;
24677;SDS011;12800;53.094;8.778;2023-12-22T09:25:52;7.87;;;2.50;;
24677;SDS011;12800;53.094;8.778;2023-12-22T09:28:17;5.80;;;2.20;;
24677;SDS011;12800;53.094;8.778;2023-12-22T09:30:43;9.93;;;3.70;;
24677;SDS011;12800;53.094;8.778;2023-12-22T09:33:09;6.60;;;2.17;;
24677;SDS011;12800;53.094;8.778;2023-12-22T09:35:35;9.83;;;1.70;;
24677;SDS011;12800;53.094;8.778;2023-12-22T09:38:01;9.70;;;2.53;;
24677;SDS011;12800;53.094;8.778;2023-12-22T09:40:28;8.60;;;1.97;;
24677;SDS011;12800;53.094;8.778;2023-12-22T09:42:57;7.00;;;1.93;;
24677;SDS011;12800;53.094;8.778;2023-12-22T09:45:24;10.50;;;2.47;;
24677;SDS011;12800;53.094;8.778;2023-12-22T09:47:50;14.00;;;4.70;;
24677;SDS011;12800;53.094;8.778;2023-12-22T09:50:19;7.67;;;2.47;;
24677;SDS011;12800;53.094;8.778;2023-12-22T09:52:46;9.87;;;2.23;;
24677;SDS011;12800;53.094;8.778;2023-12-22T09:55:12;11.43;;;2.33;;
24677;SDS011;12800;53.094;8.778;2023-12-22T09:57:38;7.97;;;1.80;;
24677;SDS011;12800;53.094;8.778;2023-12-22T10:00:08;7.30;;;2.80;;
24677;SDS011;12800;53.094;8.778;2023-12-22T10:02:35;5.07;;;1.80;;
24677;SDS011;12800;53.094;8.778;2023-12-22T10:05:02;10.47;;;3.00;;
24677;SDS011;12800;53.094;8.778;2023-12-22T10:07:28;13.13;;;3.53;;
24677;SDS011;12800;53.094;8.778;2023-12-22T10:09:55;9.43;;;3.83;;
24677;SDS011;12800;53.094;8.778;2023-12-22T10:12:23;11.60;;;2.63;;
24677;SDS011;12800;53.094;8.778;2023-12-22T10:14:50;9.20;;;1.73;;
24677;SDS011;12800;53.094;8.778;2023-12-22T10:17:17;7.43;;;2.00;;
24677;SDS011;12800;53.094;8.778;2023-12-22T10:19:43;12.67;;;2.63;;
24677;SDS011;12800;53.094;8.778;2023-12-22T10:22:09;10.00;;;2.87;;
24677;SDS011;12800;53.094;8.778;2023-12-22T10:24:47;16.93;;;3.83;;
24677;SDS011;12800;53.094;8.778;2023-12-22T10:27:13;13.40;;;2.73;;
24677;SDS011;12800;53.094;8.778;2023-12-22T10:29:40;8.60;;;1.90;;
24677;SDS011;12800;53.094;8.778;2023-12-22T10:32:07;12.07;;;2.70;;
24677;SDS011;12800;53.094;8.778;2023-12-22T10:34:33;8.80;;;2.07;;
24677;SDS011;12800;53.094;8.778;2023-12-22T10:36:59;8.40;;;2.57;;
24677;SDS011;12800;53.094;8.778;2023-12-22T10:39:29;13.30;;;5.10;;
24677;SDS011;12800;53.094;8.778;2023-12-22T10:41:56;32.87;;;17.07;;
24677;SDS011;12800;53.094;8.778;2023-12-22T10:44:26;20.87;;;8.17;;
24677;SDS011;12800;53.094;8.778;2023-12-22T10:46:52;11.30;;;5.07;;
24677;SDS011;12800;53.094;8.778;2023-12-22T10:49:21;13.33;;;4.33;;
24677;SDS011;12800;53.094;8.778;2023-12-22T10:51:48;14.87;;;4.20;;
24677;SDS011;12800;53.094;8.778;2023-12-22T10:54:14;14.63;;;5.87;;
24677;SDS011;12800;53.094;8.778;2023-12-22T10:56:39;17.43;;;6.90;;
24677;SDS011;12800;53.094;8.778;2023-12-22T10:59:06;27.37;;;10.63;;
24677;SDS011;12800;53.094;8.778;2023-12-22T11:01:33;44.77;;;18.43;;
24677;SDS011;12800;53.094;8.778;2023-12-22T11:04:07;36.50;;;17.57;;
24677;SDS011;12800;53.094;8.778;2023-12-22T11:06:38;11.43;;;3.47;;
24677;SDS011;12800;53.094;8.778;2023-12-22T11:09:08;9.43;;;3.03;;
24677;SDS011;12800;53.094;8.778;2023-12-22T11:11:38;9.47;;;3.13;;
24677;SDS011;12800;53.094;8.778;2023-12-22T11:14:05;11.37;;;4.70;;
24677;SDS011;12800;53.094;8.778;2023-12-22T11:16:33;7.17;;;2.30;;
24677;SDS011;12800;53.094;8.778;2023-12-22T11:19:00;10.10;;;4.03;;
24677;SDS011;12800;53.094;8.778;2023-12-22T11:21:27;10.87;;;4.07;;
24677;SDS011;12800;53.094;8.778;2023-12-22T11:23:54;11.60;;;2.00;;
24677;SDS011;12800;53.094;8.778;2023-12-22T11:26:21;8.07;;;1.87;;
24677;SDS011;12800;53.094;8.778;2023-12-22T11:28:48;7.57;;;1.60;;
24677;SDS011;12800;53.094;8.778;2023-12-22T11:31:16;8.73;;;1.40;;
24677;SDS011;12800;53.094;8.778;2023-12-22T11:33:50;9.13;;;1.60;;
24677;SDS011;12800;53.094;8.778;2023-12-22T11:36:17;13.07;;;1.77;;
24677;SDS011;12800;53.094;8.778;2023-12-22T11:38:46;8.43;;;1.47;;
24677;SDS011;12800;53.094;8.778;2023-12-22T11:41:21;6.90;;;1.80;;
24677;SDS011;12800;53.094;8.778;2023-12-22T11:43:52;11.53;;;1.93;;
24677;SDS011;12800;53.094;8.778;2023-12-22T11:46:18;5.97;;;1.40;;
24677;SDS011;12800;53.094;8.778;2023-12-22T11:48:47;11.27;;;1.93;;
24677;SDS011;12800;53.094;8.778;2023-12-22T11:51:14;5.27;;;1.60;;
24677;SDS011;12800;53.094;8.778;2023-12-22T11:53:40;5.77;;;1.60;;
24677;SDS011;12800;53.094;8.778;2023-12-22T11:56:07;9.67;;;2.00;;
24677;SDS011;12800;53.094;8.778;2023-12-22T11:58:46;11.40;;;2.03;;
24677;SDS011;12800;53.094;8.778;2023-12-22T12:01:20;5.73;;;1.50;;
24677;SDS011;12800;53.094;8.778;2023-12-22T12:08:47;6.87;;;1.50;;
24677;SDS011;12800;53.094;8.778;2023-12-22T12:11:14;12.63;;;2.30;;
24677;SDS011;12800;53.094;8.778;2023-12-22T12:13:43;16.97;;;4.93;;
24677;SDS011;12800;53.094;8.778;2023-12-22T12:16:10;14.27;;;4.67;;
24677;SDS011;12800;53.094;8.778;2023-12-22T12:18:37;13.77;;;3.00;;
24677;SDS011;12800;53.094;8.778;2023-12-22T12:21:03;8.13;;;2.10;;
24677;SDS011;12800;53.094;8.778;2023-12-22T12:23:35;9.00;;;2.53;;
24677;SDS011;12800;53.094;8.778;2023-12-22T12:26:01;7.07;;;2.27;;
24677;SDS011;12800;53.094;8.778;2023-12-22T12:28:32;10.97;;;2.83;;
24677;SDS011;12800;53.094;8.778;2023-12-22T12:31:06;7.50;;;1.63;;
24677;SDS011;12800;53.094;8.778;2023-12-22T12:33:33;6.23;;;1.30;;
24677;SDS011;12800;53.094;8.778;2023-12-22T12:36:01;12.20;;;2.20;;
24677;SDS011;12800;53.094;8.778;2023-12-22T12:38:36;12.23;;;3.97;;
24677;SDS011;12800;53.094;8.778;2023-12-22T12:41:03;7.40;;;1.53;;
24677;SDS011;12800;53.094;8.778;2023-12-22T12:43:32;7.63;;;1.70;;
24677;SDS011;12800;53.094;8.778;2023-12-22T12:46:04;10.40;;;1.63;;
24677;SDS011;12800;53.094;8.778;2023-12-22T12:48:30;8.23;;;1.93;;
24677;SDS011;12800;53.094;8.778;2023-12-22T12:51:03;14.83;;;2.03;;
24677;SDS011;12800;53.094;8.778;2023-12-22T12:53:30;7.47;;;1.87;;
24677;SDS011;12800;53.094;8.778;2023-12-22T12:55:57;7.13;;;1.60;;
24677;SDS011;12800;53.094;8.778;2023-12-22T12:58:27;8.33;;;2.17;;
24677;SDS011;12800;53.094;8.778;2023-12-22T13:01:03;6.43;;;1.40;;
24677;SDS011;12800;53.094;8.778;2023-12-22T13:03:30;6.63;;;1.67;;
24677;SDS011;12800;53.094;8.778;2023-12-22T13:06:08;6.23;;;1.03;;
24677;SDS011;12800;53.094;8.778;2023-12-22T13:08:34;10.13;;;1.63;;
24677;SDS011;12800;53.094;8.778;2023-12-22T13:11:00;8.10;;;1.50;;
24677;SDS011;12800;53.094;8.778;2023-12-22T13:13:26;6.53;;;1.47;;
24677;SDS011;12800;53.094;8.778;2023-12-22T13:15:52;9.90;;;2.83;;
24677;SDS011;12800;53.094;8.778;2023-12-22T13:18:18;8.97;;;1.50;;
24677;SDS011;12800;53.094;8.778;2023-12-22T13:20:43;9.67;;;1.77;;
24677;SDS011;12800;53.094;8.778;2023-12-22T13:23:09;7.87;;;3.23;;
24677;SDS011;12800;53.094;8.778;2023-12-22T13:25:39;12.30;;;4.47;;
24677;SDS011;12800;53.094;8.778;2023-12-22T13:28:05;7.43;;;1.87;;
24677;SDS011;12800;53.094;8.778;2023-12-22T13:30:37;11.40;;;2.67;;
24677;SDS011;12800;53.094;8.778;2023-12-22T13:33:06;5.80;;;1.43;;
24677;SDS011;12800;53.094;8.778;2023-12-22T13:35:32;7.90;;;1.87;;
24677;SDS011;12800;53.094;8.778;2023-12-22T13:38:05;12.27;;;1.53;;
24677;SDS011;12800;53.094;8.778;2023-12-22T13:40:31;6.90;;;2.63;;
24677;SDS011;12800;53.094;8.778;2023-12-22T13:42:57;5.10;;;1.20;;
24677;SDS011;12800;53.094;8.778;2023-12-22T13:45:26;11.67;;;1.70;;
24677;SDS011;12800;53.094;8.778;2023-12-22T13:47:53;8.80;;;1.73;;
24677;SDS011;12800;53.094;8.778;2023-12-22T13:50:19;7.60;;;2.07;;
24677;SDS011;12800;53.094;8.778;2023-12-22T13:52:48;7.10;;;1.63;;
24677;SDS011;12800;53.094;8.778;2023-12-22T13:55:16;9.67;;;2.03;;
24677;SDS011;12800;53.094;8.778;2023-12-22T13:57:42;3.17;;;0.97;;
24677;SDS011;12800;53.094;8.778;2023-12-22T14:02:44;3.27;;;1.03;;
24677;SDS011;12800;53.094;8.778;2023-12-22T14:05:16;7.70;;;2.90;;
24677;SDS011;12800;53.094;8.778;2023-12-22T14:07:45;8.93;;;2.07;;
24677;SDS011;12800;53.094;8.778;2023-12-22T14:10:11;6.67;;;2.10;;
24677;SDS011;12800;53.094;8.778;2023-12-22T14:12:37;8.03;;;1.97;;
24677;SDS011;12800;53.094;8.778;2023-12-22T14:15:07;6.87;;;1.37;;
24677;SDS011;12800;53.094;8.778;2023-12-22T14:17:33;7.30;;;1.33;;
24677;SDS011;12800;53.094;8.778;2023-12-22T14:19:59;6.07;;;1.50;;
24677;SDS011;12800;53.094;8.778;2023-12-22T14:22:25;6.73;;;1.37;;
24677;SDS011;12800;53.094;8.778;2023-12-22T14:24:51;4.50;;;1.27;;
24677;SDS011;12800;53.094;8.778;2023-12-22T14:27:17;6.37;;;1.70;;
24677;SDS011;12800;53.094;8.778;2023-12-22T14:29:44;7.30;;;1.50;;
24677;SDS011;12800;53.094;8.778;2023-12-22T14:32:10;2.57;;;1.00;;
24677;SDS011;12800;53.094;8.778;2023-12-22T14:34:37;6.17;;;1.53;;
24677;SDS011;12800;53.094;8.778;2023-12-22T14:37:03;9.37;;;1.83;;
24677;SDS011;12800;53.094;8.778;2023-12-22T14:39:29;14.43;;;3.37;;
24677;SDS011;12800;53.094;8.778;2023-12-22T14:41:56;5.17;;;2.50;;
24677;SDS011;12800;53.094;8.778;2023-12-22T14:44:22;8.57;;;3.47;;
24677;SDS011;12800;53.094;8.778;2023-12-22T14:46:47;6.20;;;2.10;;
24677;SDS011;12800;53.094;8.778;2023-12-22T14:49:13;8.57;;;3.30;;
24677;SDS011;12800;53.094;8.778;2023-12-22T14:51:39;14.50;;;2.37;;
24677;SDS011;12800;53.094;8.778;2023-12-22T14:54:05;17.90;;;10.60;;